Time;durP1;ratioP1;P1;durP2;ratioP2;P2;SDS_P1;SDS_P2;PMS_P1;PMS_P2;Temp;Humidity;BMP_temperature;BMP_pressure;BME280_temperature;BME280_humidity;BME280_pressure;Samples;Min_cycle;Max_cycle;Signal;HPM_P1;HPM_P2
2023/04/22 00:00:24;;;;;;;11.98;4.63;;;;;;;;;;5054170;28;20048;-73
2023/04/22 00:02:51;;;;;;;9.45;4.15;;;;;;;;;;5053904;28;20024;-72
2023/04/22 00:05:17;;;;;;;15.68;4.65;;;;;;;;;;5054033;28;20032;-73
2023/04/22 00:07:43;;;;;;;9.82;4.15;;;;;;;;;;5053685;28;20032;-72
2023/04/22 00:10:10;;;;;;;9.90;4.28;;;;;;;;;;5053697;28;20085;-72
2023/04/22 00:12:36;;;;;;;9.85;3.88;;;;;;;;;;5053374;28;20029;-72
2023/04/22 00:15:02;;;;;;;9.85;4.70;;;;;;;;;;5053917;28;20025;-72
2023/04/22 00:17:32;;;;;;;11.85;4.63;;;;;;;;;;5053515;28;20021;-72
2023/04/22 00:19:58;;;;;;;16.33;4.75;;;;;;;;;;5053537;28;20086;-72
2023/04/22 00:22:24;;;;;;;7.72;3.88;;;;;;;;;;5053224;28;20433;-73
2023/04/22 00:24:50;;;;;;;8.52;4.28;;;;;;;;;;5053355;28;20021;-72
2023/04/22 00:27:17;;;;;;;9.57;4.30;;;;;;;;;;5053494;28;20036;-72
2023/04/22 00:29:43;;;;;;;12.02;4.28;;;;;;;;;;5053431;28;20395;-73
2023/04/22 00:32:09;;;;;;;17.48;4.93;;;;;;;;;;5053028;28;20494;-72
2023/04/22 00:34:35;;;;;;;7.78;4.32;;;;;;;;;;5053210;28;20029;-73
2023/04/22 00:37:01;;;;;;;14.23;4.13;;;;;;;;;;5053200;28;20025;-73
2023/04/22 00:39:27;;;;;;;12.77;4.50;;;;;;;;;;5052100;28;20112;-74
2023/04/22 00:41:53;;;;;;;13.13;4.60;;;;;;;;;;5053598;28;20100;-73
2023/04/22 00:44:19;;;;;;;13.32;4.55;;;;;;;;;;5053319;28;20025;-73
2023/04/22 00:46:45;;;;;;;11.40;4.45;;;;;;;;;;5053233;28;20021;-72
2023/04/22 00:49:11;;;;;;;11.48;4.47;;;;;;;;;;5053078;28;20029;-73
2023/04/22 00:51:37;;;;;;;12.13;5.03;;;;;;;;;;5052910;28;20055;-72
2023/04/22 00:54:04;;;;;;;11.10;4.35;;;;;;;;;;5052643;28;20021;-72
2023/04/22 00:56:31;;;;;;;11.23;4.07;;;;;;;;;;5052847;28;20071;-72
2023/04/22 00:58:57;;;;;;;7.97;4.00;;;;;;;;;;5052631;28;20029;-73
2023/04/22 01:01:24;;;;;;;14.40;4.30;;;;;;;;;;5052943;28;20021;-72
2023/04/22 01:03:51;;;;;;;12.00;4.38;;;;;;;;;;5052678;28;20029;-73
2023/04/22 01:06:19;;;;;;;16.23;4.53;;;;;;;;;;5052655;28;20032;-72
2023/04/22 01:08:45;;;;;;;13.02;4.75;;;;;;;;;;5052515;28;20029;-72
2023/04/22 01:11:11;;;;;;;12.38;4.53;;;;;;;;;;5052739;28;20033;-72
2023/04/22 01:13:38;;;;;;;15.07;4.00;;;;;;;;;;5052783;28;20021;-71
2023/04/22 01:16:07;;;;;;;13.75;4.55;;;;;;;;;;5052803;28;20025;-73
2023/04/22 01:18:33;;;;;;;9.45;4.80;;;;;;;;;;5052919;28;20066;-73
2023/04/22 01:21:01;;;;;;;12.45;5.20;;;;;;;;;;5053467;28;20063;-73
2023/04/22 01:23:27;;;;;;;16.15;4.75;;;;;;;;;;5052274;28;20017;-72
2023/04/22 01:25:53;;;;;;;11.57;4.70;;;;;;;;;;5052290;28;20051;-72
2023/04/22 01:28:19;;;;;;;13.27;4.18;;;;;;;;;;5052183;28;20029;-72
2023/04/22 01:30:45;;;;;;;9.25;4.20;;;;;;;;;;5050937;28;20029;-71
2023/04/22 01:33:11;;;;;;;14.90;5.05;;;;;;;;;;5050090;28;20028;-71
2023/04/22 01:35:37;;;;;;;7.55;4.22;;;;;;;;;;5067478;28;20021;-71
2023/04/22 01:38:04;;;;;;;10.68;5.07;;;;;;;;;;5067812;28;20017;-72
2023/04/22 01:40:31;;;;;;;9.80;4.60;;;;;;;;;;5052077;28;20029;-71
2023/04/22 01:42:58;;;;;;;12.18;4.57;;;;;;;;;;5051756;28;20143;-72
2023/04/22 01:45:24;;;;;;;15.05;4.80;;;;;;;;;;5049690;28;20158;-72
2023/04/22 01:47:50;;;;;;;12.13;4.90;;;;;;;;;;5051975;28;20047;-72
2023/04/22 01:50:16;;;;;;;14.57;4.70;;;;;;;;;;5051441;28;20479;-72
2023/04/22 01:52:42;;;;;;;9.68;5.07;;;;;;;;;;5051454;28;20039;-71
2023/04/22 01:55:09;;;;;;;18.48;5.10;;;;;;;;;;5051839;28;20100;-71
2023/04/22 01:57:35;;;;;;;13.30;5.57;;;;;;;;;;5051672;28;20495;-72
2023/04/22 02:00:01;;;;;;;11.70;5.00;;;;;;;;;;5051992;28;20052;-73
2023/04/22 02:02:27;;;;;;;17.75;5.45;;;;;;;;;;5051763;28;20052;-72
2023/04/22 02:04:53;;;;;;;14.88;5.55;;;;;;;;;;5051109;28;20063;-71
2023/04/22 02:07:19;;;;;;;18.58;5.38;;;;;;;;;;5050799;28;20056;-72
2023/04/22 02:09:45;;;;;;;19.60;5.60;;;;;;;;;;5050725;28;20147;-71
2023/04/22 02:12:11;;;;;;;12.27;5.75;;;;;;;;;;5050427;28;20025;-73
2023/04/22 02:14:37;;;;;;;13.10;5.50;;;;;;;;;;5050816;28;20029;-73
2023/04/22 02:17:03;;;;;;;12.70;5.65;;;;;;;;;;5050669;28;20096;-72
2023/04/22 02:19:29;;;;;;;14.25;5.68;;;;;;;;;;5050999;28;20009;-72
2023/04/22 02:21:55;;;;;;;12.38;5.35;;;;;;;;;;5050372;28;20027;-72
2023/04/22 02:24:21;;;;;;;12.32;5.50;;;;;;;;;;5050500;28;20093;-72
2023/04/22 02:26:48;;;;;;;11.10;5.13;;;;;;;;;;5050460;28;20057;-73
2023/04/22 02:29:15;;;;;;;10.68;5.43;;;;;;;;;;5053207;28;20119;-73
2023/04/22 02:31:41;;;;;;;13.25;5.70;;;;;;;;;;5050668;28;20036;-72
2023/04/22 02:34:07;;;;;;;10.57;5.25;;;;;;;;;;5050109;28;20028;-73
2023/04/22 02:36:33;;;;;;;11.73;5.45;;;;;;;;;;5050488;28;20029;-71
2023/04/22 02:39:00;;;;;;;12.45;5.40;;;;;;;;;;5050273;28;20017;-72
2023/04/22 02:41:26;;;;;;;14.27;5.32;;;;;;;;;;5050436;28;20037;-72
2023/04/22 02:43:52;;;;;;;14.30;5.63;;;;;;;;;;5050297;28;20390;-72
2023/04/22 02:46:18;;;;;;;10.75;6.35;;;;;;;;;;5050300;28;20108;-72
2023/04/22 02:48:44;;;;;;;13.82;5.90;;;;;;;;;;5050273;28;20231;-72
2023/04/22 02:51:10;;;;;;;11.75;5.93;;;;;;;;;;5050221;28;20032;-72
2023/04/22 02:53:36;;;;;;;14.75;5.85;;;;;;;;;;5049861;28;20025;-72
2023/04/22 02:56:02;;;;;;;14.38;5.95;;;;;;;;;;5050421;28;20017;-72
2023/04/22 02:58:28;;;;;;;12.23;5.70;;;;;;;;;;5050003;28;20036;-72
2023/04/22 03:00:56;;;;;;;14.63;5.85;;;;;;;;;;5050335;28;20071;-75
2023/04/22 03:03:22;;;;;;;11.98;6.15;;;;;;;;;;5052819;28;20028;-71
2023/04/22 03:05:48;;;;;;;10.63;5.45;;;;;;;;;;5053977;28;20268;-72
2023/04/22 03:08:14;;;;;;;12.68;6.07;;;;;;;;;;5053683;28;20394;-72
2023/04/22 03:10:40;;;;;;;14.02;6.07;;;;;;;;;;5053642;28;20082;-72
2023/04/22 03:13:06;;;;;;;13.88;6.20;;;;;;;;;;5053545;28;20075;-72
2023/04/22 03:15:32;;;;;;;12.15;6.30;;;;;;;;;;5053954;28;20051;-72
2023/04/22 03:17:58;;;;;;;15.23;5.90;;;;;;;;;;5053639;28;20021;-71
2023/04/22 03:20:24;;;;;;;11.43;6.15;;;;;;;;;;5048497;28;20025;-71
2023/04/22 03:22:50;;;;;;;17.20;6.53;;;;;;;;;;5053490;28;20048;-74
2023/04/22 03:25:16;;;;;;;12.60;6.28;;;;;;;;;;5053583;28;20057;-75
2023/04/22 03:27:42;;;;;;;12.00;6.18;;;;;;;;;;5053349;28;20490;-73
2023/04/22 03:30:08;;;;;;;11.35;6.15;;;;;;;;;;5055589;28;20031;-74
2023/04/22 03:32:34;;;;;;;14.23;6.72;;;;;;;;;;5055337;28;20032;-73
2023/04/22 03:35:00;;;;;;;17.33;6.97;;;;;;;;;;5057026;28;20028;-75
2023/04/22 03:37:27;;;;;;;14.50;6.32;;;;;;;;;;5052870;28;20025;-73
2023/04/22 03:39:53;;;;;;;12.63;6.65;;;;;;;;;;5052897;28;20076;-70
2023/04/22 03:42:19;;;;;;;20.60;6.28;;;;;;;;;;5053203;28;20028;-71
2023/04/22 03:44:45;;;;;;;15.60;6.28;;;;;;;;;;5054119;28;20100;-71
2023/04/22 03:47:11;;;;;;;11.70;5.90;;;;;;;;;;5054446;28;20057;-71
2023/04/22 03:49:37;;;;;;;10.68;6.68;;;;;;;;;;5054067;28;20163;-72
2023/04/22 03:52:03;;;;;;;14.38;7.05;;;;;;;;;;5053782;28;20029;-71
2023/04/22 03:54:29;;;;;;;14.43;6.43;;;;;;;;;;5054050;28;20033;-72
2023/04/22 03:56:55;;;;;;;14.77;7.50;;;;;;;;;;5054033;28;20052;-72
2023/04/22 03:59:21;;;;;;;12.50;6.80;;;;;;;;;;5052306;28;20056;-72
2023/04/22 04:01:47;;;;;;;16.15;7.35;;;;;;;;;;5052761;28;20021;-73
2023/04/22 04:04:13;;;;;;;12.18;7.07;;;;;;;;;;5052995;28;20103;-73
2023/04/22 04:06:39;;;;;;;16.67;7.20;;;;;;;;;;5053251;28;20055;-73
2023/04/22 04:09:05;;;;;;;14.70;7.20;;;;;;;;;;5053013;28;20401;-72
2023/04/22 04:11:31;;;;;;;12.18;6.68;;;;;;;;;;5052345;28;20025;-71
2023/04/22 04:13:57;;;;;;;12.68;6.47;;;;;;;;;;5052313;28;20029;-72
2023/04/22 04:16:23;;;;;;;12.25;7.03;;;;;;;;;;5053619;28;20021;-72
2023/04/22 04:18:50;;;;;;;14.50;7.70;;;;;;;;;;5053553;28;20036;-71
2023/04/22 04:21:16;;;;;;;14.65;6.88;;;;;;;;;;5053608;28;20040;-72
2023/04/22 04:23:42;;;;;;;14.35;7.85;;;;;;;;;;5053201;28;20471;-72
2023/04/22 04:26:08;;;;;;;18.63;7.07;;;;;;;;;;5052815;28;20036;-73
2023/04/22 04:28:34;;;;;;;16.45;7.95;;;;;;;;;;5053433;28;20433;-71
2023/04/22 04:31:04;;;;;;;18.35;7.50;;;;;;;;;;5053196;28;20049;-72
2023/04/22 04:33:35;;;;;;;15.75;7.60;;;;;;;;;;5052764;28;20471;-72
2023/04/22 04:36:02;;;;;;;13.75;7.85;;;;;;;;;;5058200;28;20029;-73
2023/04/22 04:38:28;;;;;;;14.20;7.20;;;;;;;;;;5058924;28;20055;-73
2023/04/22 04:40:54;;;;;;;13.32;7.43;;;;;;;;;;5059556;28;20416;-72
2023/04/22 04:43:24;;;;;;;13.93;7.65;;;;;;;;;;5057877;28;20028;-73
2023/04/22 04:45:50;;;;;;;11.93;6.97;;;;;;;;;;5060127;28;20024;-73
2023/04/22 04:48:18;;;;;;;13.73;7.28;;;;;;;;;;5062035;28;20111;-73
2023/04/22 04:50:44;;;;;;;16.85;7.78;;;;;;;;;;5059551;28;20104;-72
2023/04/22 04:53:11;;;;;;;12.95;7.18;;;;;;;;;;5056323;28;20063;-73
2023/04/22 04:55:37;;;;;;;14.23;7.57;;;;;;;;;;5056616;28;20077;-73
2023/04/22 04:58:03;;;;;;;18.00;7.88;;;;;;;;;;5053205;28;20048;-73
2023/04/22 05:00:29;;;;;;;18.42;6.97;;;;;;;;;;5047338;28;20021;-72
2023/04/22 05:02:55;;;;;;;16.35;8.25;;;;;;;;;;5052102;28;20025;-72
2023/04/22 05:05:21;;;;;;;17.38;8.07;;;;;;;;;;5056338;28;20021;-72
2023/04/22 05:07:47;;;;;;;16.17;7.60;;;;;;;;;;5049479;28;20426;-73
2023/04/22 05:10:13;;;;;;;17.23;7.50;;;;;;;;;;5054470;28;20025;-72
2023/04/22 05:12:39;;;;;;;14.55;7.90;;;;;;;;;;5052103;28;20025;-72
2023/04/22 05:15:06;;;;;;;13.45;7.20;;;;;;;;;;5052171;28;20076;-71
2023/04/22 05:17:32;;;;;;;13.50;7.25;;;;;;;;;;5052149;28;20067;-72
2023/04/22 05:19:58;;;;;;;15.73;8.02;;;;;;;;;;5052443;28;20487;-73
2023/04/22 05:22:24;;;;;;;14.63;6.95;;;;;;;;;;5052349;28;20063;-73
2023/04/22 05:24:50;;;;;;;19.45;8.13;;;;;;;;;;5051267;28;20040;-73
2023/04/22 05:27:16;;;;;;;17.27;7.90;;;;;;;;;;5059042;28;20029;-72
2023/04/22 05:29:41;;;;;;;17.75;8.35;;;;;;;;;;5052471;28;20561;-72
2023/04/22 05:32:07;;;;;;;17.23;8.63;;;;;;;;;;5051787;28;20123;-71
2023/04/22 05:34:34;;;;;;;20.52;8.55;;;;;;;;;;5051986;28;20391;-71
2023/04/22 05:37:02;;;;;;;17.08;8.55;;;;;;;;;;5051887;28;20500;-72
2023/04/22 05:39:28;;;;;;;14.95;8.50;;;;;;;;;;5052002;28;20371;-73
2023/04/22 05:41:54;;;;;;;15.40;7.47;;;;;;;;;;5052012;28;20032;-73
2023/04/22 05:44:20;;;;;;;16.55;8.10;;;;;;;;;;5051566;28;20487;-72
2023/04/22 05:46:46;;;;;;;13.95;7.82;;;;;;;;;;5051489;28;20039;-71
2023/04/22 05:49:12;;;;;;;16.67;7.95;;;;;;;;;;5051705;28;20021;-73
2023/04/22 05:51:38;;;;;;;19.58;8.45;;;;;;;;;;5052272;28;20432;-74
2023/04/22 05:54:04;;;;;;;16.10;8.10;;;;;;;;;;5051741;28;20067;-72
2023/04/22 05:56:30;;;;;;;18.65;8.30;;;;;;;;;;5051936;28;20031;-73
2023/04/22 05:58:56;;;;;;;19.52;9.10;;;;;;;;;;5051693;28;20040;-72
2023/04/22 06:01:23;;;;;;;29.58;9.95;;;;;;;;;;5051811;28;20033;-72
2023/04/22 06:03:49;;;;;;;14.68;8.32;;;;;;;;;;5051272;28;20021;-72
2023/04/22 06:06:15;;;;;;;18.50;7.60;;;;;;;;;;5052190;28;20028;-72
2023/04/22 06:08:41;;;;;;;19.70;7.55;;;;;;;;;;5052134;28;20067;-76
2023/04/22 06:11:07;;;;;;;17.45;7.97;;;;;;;;;;5051694;28;20072;-72
2023/04/22 06:13:33;;;;;;;18.05;8.98;;;;;;;;;;5050844;28;20067;-75
2023/04/22 06:16:00;;;;;;;24.23;8.93;;;24.50;1.00;;;;;;5051338;28;20021;-73
2023/04/22 06:18:26;;;;;;;17.50;8.32;;;;;;;;;;5053508;28;20036;-72
2023/04/22 06:20:52;;;;;;;20.10;8.05;;;;;;;;;;5041269;28;20099;-72
2023/04/22 06:23:18;;;;;;;19.85;9.70;;;;;;;;;;5051242;28;20029;-75
2023/04/22 06:25:46;;;;;;;16.88;8.15;;;;;;;;;;5052032;28;20112;-73
2023/04/22 06:28:11;;;;;;;14.93;7.78;;;;;;;;;;5052084;28;20455;-72
2023/04/22 06:30:37;;;;;;;19.25;8.40;;;;;;;;;;5051673;28;20048;-72
2023/04/22 06:33:03;;;;;;;19.50;8.23;;;;;;;;;;5051397;28;20037;-73
2023/04/22 06:35:29;;;;;;;15.88;7.72;;;;;;;;;;5051755;28;20025;-72
2023/04/22 06:37:55;;;;;;;21.23;8.85;;;;;;;;;;5055795;28;20025;-72
2023/04/22 06:40:21;;;;;;;16.38;8.82;;;;;;;;;;5055610;28;20064;-73
2023/04/22 06:42:47;;;;;;;22.75;9.38;;;;;;;;;;5055002;28;20031;-71
2023/04/22 06:45:13;;;;;;;19.02;8.65;;;;;;;;;;5056471;28;20086;-73
2023/04/22 06:47:39;;;;;;;14.18;8.65;;;;;;;;;;5055817;28;20494;-72
2023/04/22 06:50:09;;;;;;;19.42;8.07;;;;;;;;;;5055173;28;20025;-71
2023/04/22 06:52:35;;;;;;;18.83;8.43;;;;;;;;;;5055131;28;20031;-72
2023/04/22 06:55:02;;;;;;;19.85;9.05;;;;;;;;;;5055811;28;20024;-72
2023/04/22 06:57:31;;;;;;;12.75;8.27;;;;;;;;;;5055277;28;20040;-72
2023/04/22 06:59:57;;;;;;;20.45;9.07;;;;;;;;;;5055241;28;20078;-71
2023/04/22 07:02:23;;;;;;;18.50;9.25;;;;;;;;;;5054681;28;20029;-72
2023/04/22 07:04:49;;;;;;;15.57;8.30;;;;;;;;;;5055079;28;20036;-71
2023/04/22 07:07:15;;;;;;;14.50;8.30;;;;;;;;;;5055042;28;20036;-72
2023/04/22 07:09:41;;;;;;;16.23;8.35;;;;;;;;;;5055376;28;20490;-71
2023/04/22 07:12:07;;;;;;;18.25;8.77;;;;;;;;;;5055452;28;20409;-71
2023/04/22 07:14:33;;;;;;;21.40;8.15;;;;;;;;;;5055403;28;20020;-72
2023/04/22 07:16:59;;;;;;;20.85;8.90;;;;;;;;;;5055962;28;20032;-72
2023/04/22 07:19:25;;;;;;;18.08;8.60;;;;;;;;;;5057530;28;20398;-76
2023/04/22 07:21:51;;;;;;;23.83;8.95;;;;;;;;;;5054587;28;20021;-73
2023/04/22 07:24:17;;;;;;;19.33;8.73;;;;;;;;;;5054574;28;20100;-70
2023/04/22 07:26:44;;;;;;;22.38;8.52;;;;;;;;;;5054860;28;20064;-72
2023/04/22 07:29:11;;;;;;;16.70;7.78;;;;;;;;;;5054633;28;20582;-72
2023/04/22 07:31:38;;;;;;;24.60;8.95;;;;;;;;;;5054782;28;20025;-72
2023/04/22 07:34:04;;;;;;;17.00;9.00;;;;;;;;;;5054350;28;20021;-73
2023/04/22 07:36:31;;;;;;;15.88;8.57;;;;;;;;;;5054539;28;20025;-74
2023/04/22 07:38:57;;;;;;;16.17;8.73;;;;;;;;;;5053980;28;20021;-73
2023/04/22 07:41:23;;;;;;;16.58;8.18;;;;;;;;;;5054193;28;20066;-72
2023/04/22 07:43:49;;;;;;;22.30;8.25;;;;;;;;;;5053877;28;20104;-72
2023/04/22 07:46:15;;;;;;;22.38;9.35;;;;;;;;;;5054365;28;20034;-74
2023/04/22 07:48:42;;;;;;;16.55;8.52;;;;;;;;;;5053271;28;20154;-73
2023/04/22 07:51:08;;;;;;;21.83;8.82;;;;;;;;;;5054584;28;20108;-75
2023/04/22 07:53:34;;;;;;;21.90;8.77;;;;;;;;;;5053919;28;20111;-74
2023/04/22 07:56:00;;;;;;;16.48;8.18;;;;;;;;;;5054204;28;20025;-72
2023/04/22 07:58:26;;;;;;;30.23;9.00;;;;;;;;;;5054234;28;20108;-72
2023/04/22 08:00:52;;;;;;;26.85;8.88;;;;;;;;;;5054168;28;20089;-71
2023/04/22 08:03:18;;;;;;;21.05;8.55;;;;;;;;;;5054253;28;20031;-72
2023/04/22 08:05:44;;;;;;;18.85;7.68;;;;;;;;;;5054447;28;20033;-73
2023/04/22 08:08:10;;;;;;;28.27;8.23;;;;;;;;;;5053518;28;20112;-73
2023/04/22 08:10:36;;;;;;;19.83;8.57;;;;;;;;;;5053635;28;20113;-72
2023/04/22 08:13:02;;;;;;;17.40;8.23;;;;;;;;;;5053184;28;20029;-72
2023/04/22 08:15:28;;;;;;;15.77;8.57;;;;;;;;;;5053695;28;20431;-72
2023/04/22 08:17:54;;;;;;;17.92;8.45;;;;;;;;;;5053766;28;20479;-72
2023/04/22 08:20:20;;;;;;;18.13;8.48;;;;;;;;;;5053780;28;20021;-73
2023/04/22 08:22:47;;;;;;;21.55;8.70;;;;;;;;;;5053783;28;20029;-74
2023/04/22 08:25:13;;;;;;;16.45;8.55;;;;;;;;;;5053995;28;20371;-72
2023/04/22 08:27:39;;;;;;;16.27;8.70;;;;;;;;;;5053917;28;20025;-73
2023/04/22 08:30:06;;;;;;;15.63;7.55;;;;;;;;;;5053723;28;20679;-73
2023/04/22 08:32:32;;;;;;;17.80;8.00;;;;;;;;;;5035204;28;20029;-71
2023/04/22 08:34:58;;;;;;;13.30;8.20;;;;;;;;;;5053207;28;20478;-73
2023/04/22 08:37:25;;;;;;;18.35;7.93;;;;;;;;;;5053561;28;20075;-72
2023/04/22 08:39:51;;;;;;;18.38;8.63;;;;;;;;;;5053707;28;20028;-72
2023/04/22 08:42:17;;;;;;;15.95;8.10;;;;;;;;;;5053179;28;20029;-72
2023/04/22 08:44:44;;;;;;;15.88;8.52;;;;;;;;;;5053345;28;20395;-71
2023/04/22 08:47:11;;;;;;;22.35;8.63;;;;;;;;;;5052997;28;20025;-72
2023/04/22 08:49:37;;;;;;;19.17;9.90;;;;;;;;;;5053464;28;20436;-74
2023/04/22 08:52:03;;;;;;;23.38;8.90;;;;;;;;;;5053553;28;20112;-75
2023/04/22 08:54:29;;;;;;;20.10;8.40;;;;;;;;;;5052808;28;20035;-75
2023/04/22 08:56:56;;;;;;;19.27;8.57;;;;;;;;;;5054087;28;20360;-73
2023/04/22 08:59:22;;;;;;;16.80;7.55;;;;;;;;;;5052852;28;20025;-74
2023/04/22 09:01:52;;;;;;;21.67;7.80;;;;;;;;;;5051614;28;20557;-73
2023/04/22 09:04:18;;;;;;;16.08;7.88;;;;;;;;;;5053212;28;20029;-74
2023/04/22 09:06:44;;;;;;;19.35;7.57;;;;;;;;;;5053266;28;20037;-72
2023/04/22 09:09:10;;;;;;;18.65;7.72;;;;;;;;;;5053430;28;20025;-73
2023/04/22 09:11:36;;;;;;;14.55;8.07;;;;;;;;;;5053933;28;20104;-72
2023/04/22 09:14:03;;;;;;;16.70;7.20;;;;;;;;;;5053288;28;20078;-73
2023/04/22 09:16:32;;;;;;;19.17;7.22;;;;;;;;;;5053086;28;20033;-73
2023/04/22 09:18:58;;;;;;;13.75;6.82;;;;;;;;;;5052769;28;20108;-73
2023/04/22 09:21:26;;;;;;;18.52;7.22;;;;;;;;;;5053742;28;20048;-74
2023/04/22 09:23:53;;;;;;;14.50;6.88;;;;;;;;;;5053006;28;20053;-73
2023/04/22 09:26:20;;;;;;;22.17;7.43;;;;;;;;;;5052257;28;20036;-72
2023/04/22 09:28:57;;;;;;;15.02;7.43;;;;;;;;;;5052180;28;20112;-71
2023/04/22 09:31:23;;;;;;;14.73;7.32;;;;;;;;;;5051772;28;20028;-73
2023/04/22 09:33:50;;;;;;;13.27;7.22;;;;;;;;;;5051732;28;20509;-73
2023/04/22 09:36:16;;;;;;;17.17;7.95;;;;;;;;;;5052387;28;20045;-73
2023/04/22 09:38:51;;;;;;;22.35;13.63;;;;;;;;;;5051854;28;20382;-74
2023/04/22 09:41:17;;;;;;;13.40;7.63;;;;;;;;;;5054855;28;20021;-75
2023/04/22 09:43:43;;;;;;;15.90;7.40;;;;;;;;;;5054198;28;20106;-75
2023/04/22 09:46:10;;;;;;;17.30;7.63;;;;;;;;;;5054208;28;20115;-75
2023/04/22 09:48:42;;;;;;;17.13;7.00;;;;;;;;;;5053270;28;20028;-75
2023/04/22 09:51:14;;;;;;;22.05;10.13;;;;;;;;;;5053685;28;20029;-74
2023/04/22 09:53:40;;;;;;;14.60;6.20;;;;;;;;;;5051809;28;20563;-73
2023/04/22 09:56:07;;;;;;;16.40;6.50;;;;;;;;;;5050314;28;20061;-73
2023/04/22 09:58:38;;;;;;;15.95;6.50;;;;;;;;;;5052119;28;20021;-73
2023/04/22 10:01:04;;;;;;;13.60;6.60;;;;;;;;;;5050823;28;20044;-73
2023/04/22 10:03:30;;;;;;;14.90;6.50;;;;;;;;;;5051703;28;20023;-72
2023/04/22 10:05:57;;;;;;;22.42;7.63;;;;;;;;;;5051903;28;20032;-72
2023/04/22 10:08:23;;;;;;;13.13;6.82;;;;;;;;;;5051895;28;20036;-72
2023/04/22 10:10:49;;;;;;;11.60;6.32;;;;;;;;;;5051168;28;20078;-72
2023/04/22 10:13:15;;;;;;;14.05;6.28;;;;;;;;;;5051106;28;20417;-72
2023/04/22 10:15:48;;;;;;;13.07;5.78;;;;;;;;;;5051735;28;20043;-73
2023/04/22 10:18:16;;;;;;;12.25;5.40;;;;;;;;;;5053473;28;20018;-72
2023/04/22 10:20:42;;;;;;;16.05;6.00;;;;;;;;;;5053525;28;20025;-75
2023/04/22 10:23:17;;;;;;;11.63;5.78;;;;;;;;;;5054735;28;20029;-73
2023/04/22 10:25:46;;;;;;;14.45;6.50;;;;;;;;;;5056375;28;20489;-73
2023/04/22 10:28:15;;;;;;;13.25;6.57;;;;;;;;;;5055415;28;20024;-77
2023/04/22 10:30:41;;;;;;;8.98;5.60;;;;;;;;;;5052968;28;20032;-74
2023/04/22 10:33:22;;;;;;;14.05;5.93;;;;;;;;;;5041678;28;20305;-73
2023/04/22 10:36:07;;;;;;;12.27;6.00;;;;;;;;;;5043939;28;20064;-74
2023/04/22 10:38:36;;;;;;;14.15;5.45;;;;;;;;;;5047632;28;20013;-72
2023/04/22 10:41:02;;;;;;;9.93;4.68;;;;;;;;;;5041407;28;20484;-73
2023/04/22 10:43:45;;;;;;;15.43;5.95;;;;;;;;;;5039516;28;20025;-74
2023/04/22 10:46:44;;;;;;;8.85;5.03;;;;;;;;;;5042682;28;20061;-74
2023/04/22 10:49:11;;;;;;;11.27;5.18;;;;;;;;;;5018309;28;20122;-75
2023/04/22 10:51:41;;;;;;;11.68;5.63;;;;;;;;;;5050005;28;20026;-74
2023/04/22 10:54:07;;;;;;;11.70;5.80;;;;;;;;;;5044954;28;20029;-74
2023/04/22 10:56:33;;;;;;;8.95;4.80;;;;;;;;;;5043592;28;20103;-74
2023/04/22 10:58:59;;;;;;;11.18;5.18;;;;;;;;;;5043226;28;20032;-72
2023/04/22 11:01:28;;;;;;;11.50;5.38;;;;;;;;;;5047058;28;20082;-71
2023/04/22 11:04:14;;;;;;;14.43;5.35;;;;;;;;;;5047177;28;20500;-73
2023/04/22 11:06:40;;;;;;;11.45;5.00;;;;;;;;;;5044231;28;20048;-74
2023/04/22 11:09:08;;;;;;;11.40;5.05;;;;;;;;;;5044226;28;20525;-73
2023/04/22 11:11:34;;;;;;;9.25;4.85;;;;;;;;;;5047387;28;20067;-72
2023/04/22 11:14:01;;;;;;;12.75;5.07;;;;;;;;;;5044621;28;20028;-74
2023/04/22 11:16:26;;;;;;;11.48;5.43;;;;;;;;;;5039120;28;20558;-74
2023/04/22 11:18:52;;;;;;;13.30;5.35;;;;;;;;;;5047582;28;20021;-73
2023/04/22 11:21:19;;;;;;;11.00;4.32;;;;;;;;;;5050337;28;20021;-73
2023/04/22 11:23:51;;;;;;;16.33;6.88;;;;;;;;;;5053548;28;20036;-73
2023/04/22 11:26:18;;;;;;;9.23;4.70;;;;;;;;;;5055631;28;20391;-74
2023/04/22 11:28:47;;;;;;;8.95;4.78;;;;;;;;;;5053455;28;20056;-74
2023/04/22 11:31:13;;;;;;;12.50;5.10;;;;;;;;;;5046840;28;20061;-73
2023/04/22 11:33:40;;;;;;;16.48;5.07;;;;;;;;;;5052665;28;20028;-72
2023/04/22 11:36:10;;;;;;;11.02;4.70;;;;;;;;;;5049470;28;20021;-73
2023/04/22 11:38:36;;;;;;;12.77;4.97;;;;;;;;;;5039776;28;20309;-74
2023/04/22 11:41:03;;;;;;;15.05;5.13;;;;;;;;;;5062203;28;20114;-72
2023/04/22 11:43:30;;;;;;;11.93;5.13;;;;;;;;;;5044496;28;20024;-73
2023/04/22 11:45:56;;;;;;;8.40;4.93;;;;;;;;;;5047665;28;20120;-73
2023/04/22 11:48:23;;;;;;;12.85;4.75;;;;;;;;;;5045692;28;20033;-75
2023/04/22 11:50:50;;;;;;;11.38;5.05;;;;;;;;;;5040419;28;20116;-74
2023/04/22 11:53:19;;;;;;;14.45;4.60;;;;;;;;;;5042417;28;20103;-74
2023/04/22 11:55:46;;;;;;;9.88;4.63;;;;;;;;;;5051764;28;20103;-73
2023/04/22 11:58:13;;;;;;;10.88;4.43;;;;;;;;;;5055005;28;20096;-73
2023/04/22 12:00:44;;;;;;;14.15;4.60;;;;;;;;;;5048785;28;20387;-73
2023/04/22 12:03:21;;;;;;;9.25;4.63;;;;;;;;;;5051249;28;20087;-73
2023/04/22 12:05:47;;;;;;;9.77;4.45;;;;;;;;;;5048099;28;20020;-74
2023/04/22 12:08:15;;;;;;;7.63;3.83;;;;;;;;;;5050703;28;20108;-73
2023/04/22 12:10:41;;;;;;;9.55;4.00;;;;;;;;;;5036732;28;20013;-72
2023/04/22 12:13:07;;;;;;;10.27;4.50;;;;;;;;;;5054281;28;20025;-73
2023/04/22 12:15:37;;;;;;;9.25;4.35;;;;;;;;;;5045305;28;20017;-73
2023/04/22 12:18:03;;;;;;;16.13;4.00;;;;;;;;;;5041550;28;20058;-74
2023/04/22 12:20:32;;;;;;;9.38;4.40;;;;;;;;;;5056545;28;20055;-73
2023/04/22 12:22:58;;;;;;;8.80;4.63;;;;;;;;;;5073256;28;20024;-73
2023/04/22 12:25:24;;;;;;;10.70;4.07;;;;;;;;;;5045406;28;20036;-72
2023/04/22 12:27:50;;;;;;;9.98;3.92;;;;;;;;;;5062079;28;20376;-72
2023/04/22 12:30:16;;;;;;;13.05;4.75;;;;;;;;;;5069122;28;20025;-72
2023/04/22 12:32:42;;;;;;;9.40;4.35;;;;;;;;;;5083694;28;20025;-72
2023/04/22 12:35:08;;;;;;;13.02;4.70;;;;;;;;;;5090541;28;20862;-73
2023/04/22 12:37:34;;;;;;;13.18;5.13;;;;;;;;;;5075149;28;20027;-73
2023/04/22 12:40:00;;;;;;;9.40;5.60;;;;;;;;;;5067938;28;20024;-73
2023/04/22 12:42:26;;;;;;;10.00;5.25;;;;;;;;;;5052252;28;20031;-73
2023/04/22 12:44:52;;;;;;;10.13;4.20;;;;;;;;;;5053088;28;20060;-72
2023/04/22 12:47:18;;;;;;;9.95;4.35;;;;;;;;;;5053085;28;20033;-72
2023/04/22 12:49:46;;;;;;;10.15;4.30;;;;;;;;;;5052950;28;20430;-73
2023/04/22 12:52:12;;;;;;;8.18;4.30;;;;;;;;;;5052998;28;20017;-73
2023/04/22 12:54:38;;;;;;;12.68;6.97;;;;;;;;;;5053500;28;20498;-73
2023/04/22 12:57:03;;;;;;;9.38;3.75;;;;;;;;;;5052966;28;20036;-74
2023/04/22 12:59:30;;;;;;;7.00;3.95;;;;;;;;;;5053117;28;20475;-73
2023/04/22 13:01:56;;;;;;;9.20;3.88;;;;;;;;;;5052650;28;20029;-73
2023/04/22 13:04:22;;;;;;;9.13;4.30;;;;;;;;;;5054077;28;20049;-73
2023/04/22 13:06:54;;;;;;;10.43;4.00;;;;;;;;;;5052403;28;20479;-74
2023/04/22 13:09:21;;;;;;;14.90;4.15;;;;;;;;;;5054351;28;20063;-73
2023/04/22 13:11:48;;;;;;;8.35;4.07;;;;;;;;;;5052810;28;20039;-73
2023/04/22 13:14:14;;;;;;;7.88;4.10;;;;;;;;;;5051943;28;20031;-74
2023/04/22 13:16:40;;;;;;;10.85;4.03;;;;;;;;;;5052520;28;20482;-74
2023/04/22 13:19:07;;;;;;;10.23;4.28;;;;;;;;;;5052804;28;20022;-72
2023/04/22 13:21:33;;;;;;;17.30;4.47;;;;;;;;;;5052621;28;20406;-74
2023/04/22 13:23:59;;;;;;;13.68;4.22;;;;;;;;;;5052389;28;20027;-73
2023/04/22 13:26:26;;;;;;;15.80;4.75;;;;;;;;;;5053242;28;20103;-73
2023/04/22 13:28:52;;;;;;;11.15;3.90;;;;;;;;;;5052693;28;20033;-76
2023/04/22 13:31:18;;;;;;;8.65;4.45;;;;;;;;;;5052453;28;20029;-73
2023/04/22 13:33:45;;;;;;;10.10;4.30;;;;;;;;;;5052353;28;20024;-73
2023/04/22 13:36:11;;;;;;;9.18;4.03;;;;;;;;;;5052109;28;20045;-72
2023/04/22 13:38:38;;;;;;;14.45;3.40;;;;;;;;;;5051807;28;20044;-74
2023/04/22 13:41:04;;;;;;;7.63;3.45;;;;;;;;;;5051767;28;20655;-73
2023/04/22 13:43:30;;;;;;;15.80;4.57;;;;;;;;;;5053133;28;20396;-73
2023/04/22 13:45:56;;;;;;;12.60;5.95;;;;;;;;;;5051291;28;20087;-74
2023/04/22 13:48:22;;;;;;;13.07;3.88;;;;;;;;;;5052094;28;20647;-73
2023/04/22 13:50:48;;;;;;;9.90;4.10;;;;;;;;;;5051875;28;20033;-74
2023/04/22 13:53:14;;;;;;;13.45;3.92;;;;;;;;;;5051362;28;20033;-72
2023/04/22 13:55:42;;;;;;;11.15;3.63;;;;;;;;;;5054752;28;20081;-75
2023/04/22 13:58:08;;;;;;;9.45;3.78;;;;;;;;;;5054836;28;20078;-74
2023/04/22 14:00:34;;;;;;;9.48;4.00;;;;;;;;;;5055034;28;20471;-74
2023/04/22 14:03:00;;;;;;;7.38;3.40;;;;;;;;;;5053026;28;20025;-75
2023/04/22 14:05:26;;;;;;;5.90;3.40;;;;;;;;;;5052552;28;20116;-74
2023/04/22 14:07:52;;;;;;;6.22;3.10;;;;;;;;;;5052032;28;20033;-75
2023/04/22 14:10:20;;;;;;;11.18;3.40;;;;;;;;;;5052651;28;20029;-74
2023/04/22 14:12:46;;;;;;;10.85;3.53;;;;;;;;;;5051087;28;20109;-74
2023/04/22 14:15:12;;;;;;;8.07;3.28;;;;;;;;;;5051288;28;20109;-72
2023/04/22 14:17:39;;;;;;;14.50;3.78;;;;;;;;;;5051420;28;20425;-73
2023/04/22 14:20:05;;;;;;;8.18;3.58;;;;;;;;;;5053921;28;20017;-73
2023/04/22 14:22:31;;;;;;;9.95;3.60;;;;;;;;;;5071351;28;20028;-73
2023/04/22 14:24:57;;;;;;;9.98;3.58;;;;;;;;;;5071815;28;20040;-73
2023/04/22 14:27:23;;;;;;;11.13;3.30;;;;;;;;;;5072769;28;20028;-73